Miami Springs, Florida
Current Conditions -  °F | °C
As of 9:47 PM on Friday 24 Oct 2014 (Local Time) from KMIA Reporting Station
Broken Clouds Broken Clouds  
Wind Chill: 75°   Ceiling: 2800
Heat Index: 75°   Visibility: 10mi
Dew Point: 70°   Wind: 7mph
Humidity: 83%   Direction: 350°N
Pressure: 29.86"   Gusts: NA
Location:  25.82°N, 80.28°W
Report Text: KMIA 250147Z 35006KT 10SM BKN028 BKN050 24/21 A2986 RMK AO2
Loading
Personal Weather Stations






























Interactive Weather Map
Tropical Storm Tracking
New forecast layout! Learn more

10-Day Weather Forecast

Advertisements
Track Severe Weather on mobile